Time;durP1;ratioP1;P1;durP2;ratioP2;P2;SDS_P1;SDS_P2;PMS_P1;PMS_P2;Temp;Humidity;BMP_temperature;BMP_pressure;BME280_temperature;BME280_humidity;BME280_pressure;Samples;Min_cycle;Max_cycle;Signal;HPM_P1;HPM_P2
2021/12/20 00:03:00;;;;;;;2.80;1.10;;;22.30;57.20;;;;;;214232;1316;22558;-51
2021/12/20 00:08:04;;;;;;;4.00;1.30;;;22.40;57.10;;;;;;214240;1312;22584;-53
2021/12/20 00:13:07;;;;;;;3.20;1.00;;;22.50;56.80;;;;;;214052;1317;24279;-52
2021/12/20 00:18:11;;;;;;;2.20;1.00;;;22.40;56.80;;;;;;214018;1312;22570;-53
2021/12/20 00:23:15;;;;;;;2.10;1.10;;;22.30;57.30;;;;;;214155;1312;23049;-54
2021/12/20 00:28:20;;;;;;;1.80;0.90;;;22.30;57.20;;;;;;214400;1312;22687;-55
2021/12/20 00:33:23;;;;;;;2.50;1.20;;;22.30;56.90;;;;;;214231;1309;22619;-54
2021/12/20 00:43:49;;;;;;;3.30;1.20;;;22.70;56.00;;;;;;214176;1312;24409;-53
2021/12/20 00:48:53;;;;;;;4.20;1.30;;;22.80;55.80;;;;;;214196;1313;22668;-54
2021/12/20 00:53:56;;;;;;;2.60;1.20;;;22.70;55.50;;;;;;214111;1318;24725;-53
2021/12/20 00:59:00;;;;;;;3.80;1.20;;;22.70;55.30;;;;;;214180;1316;26497;-54
2021/12/20 01:04:04;;;;;;;5.20;1.20;;;22.70;55.30;;;;;;214193;1313;229305;-54
2021/12/20 01:09:08;;;;;;;3.40;1.20;;;22.80;55.10;;;;;;214230;1313;25343;-55
2021/12/20 01:14:21;;;;;;;2.30;1.20;;;22.80;55.00;;;;;;214187;1313;22610;-53
2021/12/20 01:19:25;;;;;;;4.10;1.40;;;22.80;55.00;;;;;;213724;1313;25362;-55
2021/12/20 01:24:29;;;;;;;4.00;1.20;;;22.90;54.50;;;;;;214186;1316;24048;-52
2021/12/20 01:29:32;;;;;;;2.40;1.20;;;22.90;54.40;;;;;;214383;1313;23369;-52
2021/12/20 01:34:36;;;;;;;2.80;1.00;;;22.90;54.50;;;;;;214283;1315;22580;-54
2021/12/20 01:39:40;;;;;;;2.90;1.10;;;22.70;54.90;;;;;;214277;1315;22889;-53
2021/12/20 01:44:44;;;;;;;2.10;1.10;;;22.80;54.70;;;;;;214323;1313;22957;-56
2021/12/20 01:50:13;;;;;;;2.50;1.10;;;22.80;54.90;;;;;;214291;1317;22604;-52
2021/12/20 01:55:20;;;;;;;3.30;1.60;;;22.70;54.70;;;;;;214198;1314;22584;-53
2021/12/20 02:00:26;;;;;;;2.90;1.20;;;22.70;54.70;;;;;;214172;1311;25626;-54
2021/12/20 02:10:46;;;;;;;2.50;1.20;;;22.80;54.50;;;;;;214092;1318;22573;-55
2021/12/20 02:15:51;;;;;;;4.20;1.10;;;22.90;54.10;;;;;;214413;1315;24297;-52
2021/12/20 02:20:55;;;;;;;2.70;1.40;;;22.90;54.10;;;;;;214167;1316;24448;-53
2021/12/20 02:26:00;;;;;;;3.40;1.30;;;22.80;54.10;;;;;;214380;1313;25081;-52
2021/12/20 02:41:33;;;;;;;3.00;1.40;;;22.80;53.70;;;;;;214326;1312;22642;-53
2021/12/20 02:51:46;;;;;;;2.20;1.00;;;22.80;53.80;;;;;;213476;1313;22564;-52
2021/12/20 02:56:52;;;;;;;2.30;1.10;;;22.80;53.90;;;;;;214086;1309;22566;-53
2021/12/20 03:01:59;;;;;;;2.40;1.10;;;22.80;54.00;;;;;;214255;1312;24289;-55
2021/12/20 03:07:07;;;;;;;3.30;1.20;;;22.80;53.70;;;;;;214222;1309;22558;-53
2021/12/20 03:12:13;;;;;;;3.70;1.00;;;22.90;53.60;;;;;;214238;1314;22587;-53
2021/12/20 03:17:16;;;;;;;2.20;1.10;;;22.90;53.70;;;;;;214198;1309;22561;-52
2021/12/20 03:22:20;;;;;;;4.00;1.10;;;22.90;53.90;;;;;;214196;1309;22580;-52
2021/12/20 03:27:23;;;;;;;2.50;1.10;;;22.90;53.60;;;;;;214217;1314;22580;-51
2021/12/20 03:32:27;;;;;;;2.10;1.10;;;22.90;53.40;;;;;;213719;1313;22584;-51
2021/12/20 03:37:31;;;;;;;3.00;1.20;;;22.90;53.40;;;;;;213942;1316;23130;-53
2021/12/20 03:42:35;;;;;;;2.20;1.00;;;22.90;53.30;;;;;;214451;1315;22887;-53
2021/12/20 03:47:40;;;;;;;2.30;1.10;;;23.00;53.40;;;;;;214284;1309;22558;-52
2021/12/20 03:52:44;;;;;;;2.10;0.80;;;23.00;53.10;;;;;;214228;1310;25376;-54
2021/12/20 03:57:48;;;;;;;2.40;1.20;;;22.90;53.60;;;;;;214242;1314;22563;-53
2021/12/20 04:02:53;;;;;;;1.80;1.00;;;22.90;53.30;;;;;;214098;1309;24273;-54
2021/12/20 04:07:57;;;;;;;2.20;1.10;;;22.90;53.10;;;;;;214189;1315;25338;-54
2021/12/20 04:13:01;;;;;;;2.00;0.80;;;22.90;53.60;;;;;;214120;1312;24277;-52
2021/12/20 04:18:05;;;;;;;2.80;0.90;;;22.90;53.00;;;;;;213909;1309;24251;-53
2021/12/20 04:23:14;;;;;;;2.10;1.20;;;23.00;53.00;;;;;;214222;1312;25189;-54
2021/12/20 04:28:17;;;;;;;1.80;1.10;;;22.90;53.00;;;;;;214170;1312;22807;-53
2021/12/20 04:33:21;;;;;;;1.40;0.80;;;23.00;53.00;;;;;;214164;1312;23714;-51
2021/12/20 04:38:28;;;;;;;2.30;1.00;;;23.00;53.00;;;;;;214167;1309;22568;-54
2021/12/20 04:43:31;;;;;;;2.60;1.20;;;23.00;52.80;;;;;;214122;1313;26525;-54
2021/12/20 04:48:39;;;;;;;2.30;1.20;;;23.10;53.10;;;;;;214133;1312;22839;-53
2021/12/20 04:53:42;;;;;;;1.60;1.00;;;23.00;53.00;;;;;;214207;1309;22763;-53
2021/12/20 04:58:46;;;;;;;2.40;0.90;;;23.10;52.70;;;;;;214265;1309;25522;-55
2021/12/20 05:03:49;;;;;;;2.50;1.20;;;23.00;52.60;;;;;;213586;1311;25528;-53
2021/12/20 05:08:55;;;;;;;1.80;1.00;;;23.00;52.60;;;;;;214030;1314;22603;-55
2021/12/20 05:14:00;;;;;;;1.70;1.00;;;23.10;52.70;;;;;;214056;1309;24451;-51
2021/12/20 05:19:04;;;;;;;2.80;0.80;;;23.00;52.60;;;;;;214028;1313;22646;-53
2021/12/20 05:24:08;;;;;;;1.30;0.70;;;23.00;52.50;;;;;;214313;1309;25252;-55
2021/12/20 05:29:11;;;;;;;3.60;1.00;;;23.00;52.60;;;;;;214194;1312;23286;-50
2021/12/20 05:34:15;;;;;;;1.20;0.80;;;23.00;52.50;;;;;;214219;1314;24412;-55
2021/12/20 05:39:19;;;;;;;1.50;0.90;;;23.00;52.40;;;;;;213932;1312;22589;-51
2021/12/20 05:44:22;;;;;;;1.80;1.00;;;23.00;52.60;;;;;;214260;1309;24707;-52
2021/12/20 05:49:27;;;;;;;2.50;1.00;;;23.00;52.60;;;;;;214255;1310;25679;-51
2021/12/20 05:54:31;;;;;;;2.40;0.80;;;23.00;52.50;;;;;;214169;1313;22595;-54
2021/12/20 05:59:35;;;;;;;2.90;1.00;;;23.00;52.50;;;;;;214283;1314;22751;-52
2021/12/20 06:04:39;;;;;;;4.30;1.30;;;23.00;52.40;;;;;;214202;1309;22582;-52
2021/12/20 06:09:42;;;;;;;1.50;0.90;;;23.10;52.30;;;;;;214185;1309;25480;-52
2021/12/20 06:14:46;;;;;;;2.60;1.10;;;23.10;52.30;;;;;;214113;1309;22558;-53
2021/12/20 06:19:49;;;;;;;2.10;0.90;;;23.10;52.30;;;;;;214298;1309;26687;-52
2021/12/20 06:24:53;;;;;;;2.80;0.70;;;23.00;52.40;;;;;;214227;1309;24269;-56
2021/12/20 06:29:57;;;;;;;1.90;0.90;;;23.10;52.10;;;;;;214458;1309;22558;-55
2021/12/20 06:35:04;;;;;;;2.10;1.00;;;23.10;52.10;;;;;;214210;1309;25499;-52
2021/12/20 06:40:10;;;;;;;2.00;0.90;;;23.00;52.30;;;;;;213681;1312;26520;-54
2021/12/20 06:45:34;;;;;;;1.50;0.90;;;23.10;52.00;;;;;;213384;1312;22686;-55
2021/12/20 06:51:10;;;;;;;1.80;0.80;;;23.10;52.20;;;;;;214246;1309;24280;-51
2021/12/20 06:56:27;;;;;;;2.10;1.10;;;23.00;52.10;;;;;;214211;1309;25338;-52
2021/12/20 07:01:39;;;;;;;2.00;1.10;;;23.10;52.50;;;;;;214273;1309;22757;-54
2021/12/20 07:06:53;;;;;;;5.10;1.30;;;23.10;52.30;;;;;;214611;1309;22877;-51
2021/12/20 07:12:03;;;;;;;4.50;1.10;;;23.10;52.60;;;;;;214163;1309;22867;-54
2021/12/20 07:17:16;;;;;;;3.20;1.20;;;23.10;52.70;;;;;;214348;1310;28581;-53
2021/12/20 07:22:34;;;;;;;5.60;1.40;;;23.10;53.10;;;;;;213689;1312;24415;-54
2021/12/20 07:27:46;;;;;;;3.30;1.50;;;23.10;53.20;;;;;;214144;1312;24330;-52
2021/12/20 07:33:00;;;;;;;3.30;0.90;;;23.10;53.20;;;;;;214225;1312;24816;-53
2021/12/20 07:38:23;;;;;;;4.10;1.20;;;23.10;53.50;;;;;;213729;1310;25173;-55
2021/12/20 07:43:27;;;;;;;2.50;1.10;;;23.10;53.80;;;;;;214231;1309;22631;-53
2021/12/20 07:48:31;;;;;;;6.70;1.30;;;23.10;53.70;;;;;;213850;1312;22588;-53
2021/12/20 07:53:35;;;;;;;3.50;1.00;;;23.10;53.80;;;;;;214371;1309;22573;-51
2021/12/20 07:58:45;;;;;;;4.30;1.50;;;23.20;53.80;;;;;;214401;1309;24243;-51
2021/12/20 08:03:55;;;;;;;6.10;1.80;;;23.20;54.00;;;;;;214173;1309;24335;-55
2021/12/20 08:09:04;;;;;;;5.40;1.40;;;23.20;54.00;;;;;;214438;1307;22708;-53
2021/12/20 08:14:17;;;;;;;10.40;1.40;;;23.30;53.60;;;;;;214221;1309;25618;-53
2021/12/20 08:19:36;;;;;;;6.10;1.40;;;23.40;53.70;;;;;;214084;1312;25629;-53
2021/12/20 08:24:40;;;;;;;12.20;1.90;;;23.40;53.80;;;;;;214145;1309;25253;-55
2021/12/20 08:29:44;;;;;;;9.30;1.20;;;23.40;53.50;;;;;;213627;1309;24314;-57
2021/12/20 08:35:17;;;;;;;8.30;1.40;;;23.30;53.70;;;;;;213535;1312;25588;-55
2021/12/20 08:40:43;;;;;;;9.90;1.20;;;23.30;54.00;;;;;;214234;1309;24451;-55
2021/12/20 08:46:05;;;;;;;8.00;1.10;;;23.30;53.80;;;;;;214044;1309;22573;-56
2021/12/20 08:57:23;;;;;;;8.70;1.50;;;23.30;53.90;;;;;;213153;1312;24278;-51
2021/12/20 09:03:20;;;;;;;6.60;1.40;;;23.30;53.60;;;;;;213908;1309;24812;-53
2021/12/20 09:08:14;;;;;;;7.20;1.50;;;23.30;53.60;;;;;;212387;1312;22571;-53
2021/12/20 09:13:55;;;;;;;4.60;1.20;;;23.30;53.70;;;;;;214131;1309;24427;-52
2021/12/20 09:19:09;;;;;;;3.80;1.30;;;23.30;53.60;;;;;;213956;1311;25524;-55
2021/12/20 09:24:33;;;;;;;7.00;1.30;;;23.30;53.40;;;;;;214802;1309;22834;-54
2021/12/20 09:29:45;;;;;;;9.10;1.40;;;23.30;53.40;;;;;;214404;1309;25426;-52
2021/12/20 09:34:49;;;;;;;2.80;1.20;;;23.40;53.30;;;;;;214740;1309;25514;-55
2021/12/20 09:39:55;;;;;;;2.30;1.00;;;23.40;53.00;;;;;;214595;1310;24126;-56
2021/12/20 09:45:08;;;;;;;5.50;1.30;;;23.40;53.30;;;;;;214486;1310;24812;-55
2021/12/20 09:50:17;;;;;;;7.70;1.10;;;23.30;53.00;;;;;;214770;1309;25535;-52
2021/12/20 09:55:36;;;;;;;5.10;1.30;;;23.40;53.00;;;;;;213869;1312;22623;-52
2021/12/20 10:00:56;;;;;;;7.70;1.50;;;23.40;53.10;;;;;;214496;1309;22560;-55
2021/12/20 10:06:09;;;;;;;5.40;1.20;;;23.40;53.10;;;;;;214199;1312;24823;-54
2021/12/20 10:11:37;;;;;;;6.10;1.70;;;23.40;53.10;;;;;;214576;1309;22647;-53
2021/12/20 10:16:46;;;;;;;3.90;1.40;;;23.50;52.80;;;;;;214610;1309;25479;-52
2021/12/20 10:21:51;;;;;;;4.70;1.20;;;23.50;52.60;;;;;;214536;1309;24830;-57
2021/12/20 10:27:03;;;;;;;3.30;1.60;;;23.50;53.20;;;;;;214616;1309;22751;-52
2021/12/20 10:32:48;;;;;;;7.40;1.30;;;23.40;53.20;;;;;;214534;1309;22580;-55
2021/12/20 10:38:44;;;;;;;6.20;1.10;;;23.40;53.30;;;;;;214564;1309;25493;-55
2021/12/20 10:44:03;;;;;;;4.40;1.40;;;23.40;53.70;;;;;;214448;1309;22781;-54
2021/12/20 10:49:14;;;;;;;9.70;2.20;;;23.40;53.30;;;;;;214479;1309;22606;-55
2021/12/20 10:54:25;;;;;;;5.10;1.30;;;23.40;53.50;;;;;;214449;1309;22674;-54
2021/12/20 10:59:49;;;;;;;4.50;1.20;;;23.40;53.40;;;;;;214442;1309;24228;-51
2021/12/20 11:12:24;;;;;;;;;;;23.30;53.70;;;;;;213822;1312;24226;-52
2021/12/20 11:18:01;;;;;;;4.60;1.50;;;23.40;53.20;;;;;;214483;1310;24833;-55
2021/12/20 11:23:34;;;;;;;4.50;1.80;;;23.40;52.40;;;;;;214531;1309;22705;-55
2021/12/20 11:28:47;;;;;;;2.80;1.50;;;23.40;52.30;;;;;;213824;1312;26373;-52
2021/12/20 11:33:54;;;;;;;3.20;1.50;;;23.50;52.50;;;;;;213797;1313;24431;-52
2021/12/20 11:39:03;;;;;;;7.00;1.30;;;23.40;53.10;;;;;;214307;1312;24309;-55
2021/12/20 11:44:21;;;;;;;5.30;1.80;;;23.40;53.30;;;;;;214244;1309;22590;-55
2021/12/20 11:49:39;;;;;;;3.60;1.40;;;23.30;53.80;;;;;;214029;1309;24445;-53
2021/12/20 11:54:48;;;;;;;2.70;1.30;;;23.40;54.00;;;;;;213945;1315;23854;-54
2021/12/20 12:00:15;;;;;;;5.60;1.40;;;23.40;54.30;;;;;;214359;1314;24287;-53
2021/12/20 12:05:35;;;;;;;3.30;1.40;;;23.40;55.00;;;;;;214329;1317;26537;-54
2021/12/20 12:10:39;;;;;;;6.40;1.30;;;23.40;55.00;;;;;;214428;1314;22596;-54
2021/12/20 12:15:59;;;;;;;3.70;1.50;;;23.40;55.10;;;;;;214038;1312;22564;-59
2021/12/20 12:21:07;;;;;;;3.30;1.30;;;23.30;55.80;;;;;;214180;1318;22616;-54
2021/12/20 12:26:43;;;;;;;6.60;1.60;;;23.40;55.70;;;;;;213635;1318;25554;-54
2021/12/20 12:32:12;;;;;;;6.50;1.20;;;23.40;55.80;;;;;;214171;1318;23992;-55
2021/12/20 12:37:34;;;;;;;3.90;1.40;;;23.40;55.70;;;;;;214594;1312;23074;-55
2021/12/20 12:42:49;;;;;;;2.00;1.20;;;23.50;55.90;;;;;;214363;1318;22584;-52
2021/12/20 12:48:43;;;;;;;3.10;1.30;;;23.50;55.30;;;;;;213897;1311;22593;-53
2021/12/20 12:53:56;;;;;;;1.90;1.10;;;23.50;55.40;;;;;;214151;1318;22580;-55
2021/12/20 12:59:09;;;;;;;3.70;1.30;;;23.40;55.80;;;;;;214252;1316;22732;-54
2021/12/20 13:04:17;;;;;;;2.50;1.20;;;23.30;56.40;;;;;;213483;1316;22582;-51
2021/12/20 13:09:33;;;;;;;2.30;1.20;;;23.50;56.10;;;;;;213789;1318;22662;-55
2021/12/20 13:20:35;;;;;;;4.10;1.50;;;23.50;56.50;;;;;;214120;1318;25502;-53
2021/12/20 13:26:13;;;;;;;3.40;1.10;;;23.50;56.50;;;;;;214159;1318;24484;-52
2021/12/20 13:31:32;;;;;;;2.90;1.50;;;23.50;56.20;;;;;;214200;1316;22662;-53
2021/12/20 13:36:36;;;;;;;5.50;1.40;;;23.50;56.00;;;;;;214175;1318;24431;-52
2021/12/20 13:41:39;;;;;;;4.10;1.30;;;23.50;55.60;;;;;;214081;1318;24305;-56
2021/12/20 13:46:49;;;;;;;3.60;1.40;;;23.40;55.70;;;;;;214109;1309;24450;-54
2021/12/20 13:52:07;;;;;;;4.30;1.50;;;23.50;56.00;;;;;;214271;1310;25491;-53
2021/12/20 13:57:38;;;;;;;5.40;1.50;;;23.50;56.50;;;;;;214467;1314;25432;-55
2021/12/20 14:02:52;;;;;;;4.80;1.30;;;23.50;56.30;;;;;;214281;1318;22597;-55
2021/12/20 14:08:02;;;;;;;7.10;1.40;;;23.50;55.90;;;;;;214494;1315;24339;-53
2021/12/20 14:13:19;;;;;;;2.80;1.20;;;23.50;56.10;;;;;;214305;1316;22560;-55
2021/12/20 14:19:06;;;;;;;2.30;1.20;;;23.50;55.90;;;;;;214020;1319;22649;-54
2021/12/20 14:24:58;;;;;;;4.20;1.30;;;23.40;56.20;;;;;;214366;1309;22640;-53
2021/12/20 14:30:22;;;;;;;;;;;23.50;56.40;;;;;;214171;1316;22658;-55
2021/12/20 14:35:30;;;;;;;5.70;1.30;;;23.50;56.00;;;;;;214369;1314;25450;-54
2021/12/20 14:40:54;;;;;;;3.70;1.50;;;23.40;56.10;;;;;;214252;1316;24323;-57
2021/12/20 14:46:28;;;;;;;3.10;2.00;;;23.50;55.90;;;;;;214214;1317;26688;-55
2021/12/20 14:51:41;;;;;;;4.20;1.50;;;23.40;55.50;;;;;;214276;1316;22580;-53
2021/12/20 14:57:03;;;;;;;5.60;1.40;;;23.40;56.70;;;;;;214436;1316;24267;-49
2021/12/20 15:02:11;;;;;;;5.30;1.90;;;23.40;57.10;;;;;;214455;1312;25348;-54
2021/12/20 15:07:34;;;;;;;6.20;1.70;;;23.50;56.40;;;;;;214297;1317;22636;-55
2021/12/20 15:12:40;;;;;;;2.30;1.40;;;23.40;56.70;;;;;;214253;1316;22588;-54
2021/12/20 15:17:51;;;;;;;7.40;1.70;;;23.50;56.50;;;;;;214293;1309;22891;-52
2021/12/20 15:23:01;;;;;;;5.10;1.70;;;23.50;56.60;;;;;;214164;1312;22655;-54
2021/12/20 15:28:05;;;;;;;6.50;1.70;;;23.50;56.70;;;;;;214159;1311;25637;-51
2021/12/20 15:33:15;;;;;;;4.10;1.50;;;23.40;56.60;;;;;;214207;1317;24307;-53
2021/12/20 15:38:25;;;;;;;2.90;1.30;;;23.30;56.80;;;;;;214351;1309;27121;-53
2021/12/20 15:43:38;;;;;;;4.60;1.40;;;23.30;57.00;;;;;;214593;1309;22581;-53
2021/12/20 15:48:57;;;;;;;5.50;1.30;;;23.30;56.70;;;;;;214430;1309;25729;-55
2021/12/20 15:54:04;;;;;;;5.80;1.30;;;23.40;56.50;;;;;;214258;1309;24362;-54
2021/12/20 15:59:11;;;;;;;4.70;1.50;;;23.30;56.40;;;;;;213357;1312;22713;-52
2021/12/20 16:04:16;;;;;;;5.20;1.40;;;23.30;56.50;;;;;;214419;1309;22562;-53
2021/12/20 16:09:23;;;;;;;4.50;1.30;;;23.30;56.40;;;;;;213521;1314;22721;-52
2021/12/20 16:14:30;;;;;;;3.70;1.00;;;23.30;56.80;;;;;;214170;1309;26566;-52
2021/12/20 16:19:36;;;;;;;3.70;1.80;;;23.30;56.80;;;;;;214204;1309;24279;-52
2021/12/20 16:24:40;;;;;;;4.10;1.20;;;23.30;56.40;;;;;;214241;1312;24283;-54
2021/12/20 16:30:04;;;;;;;3.30;1.30;;;23.30;56.30;;;;;;214068;1312;22731;-53
2021/12/20 16:35:11;;;;;;;3.20;1.40;;;23.30;56.20;;;;;;213916;1309;23981;-53
2021/12/20 16:40:20;;;;;;;2.60;1.20;;;23.30;56.20;;;;;;214097;1309;22577;-51
2021/12/20 16:45:51;;;;;;;1.60;1.00;;;23.30;56.30;;;;;;213352;1311;23120;-52
2021/12/20 16:51:01;;;;;;;3.10;1.20;;;23.30;56.30;;;;;;214127;1309;22796;-53
2021/12/20 16:56:07;;;;;;;2.50;1.40;;;23.30;56.30;;;;;;214245;1309;25558;-55
2021/12/20 17:01:14;;;;;;;6.60;1.50;;;23.30;56.30;;;;;;214180;1313;22619;-55
2021/12/20 17:06:18;;;;;;;3.60;1.20;;;23.30;56.40;;;;;;214070;1307;223939;-54
2021/12/20 17:11:29;;;;;;;2.70;1.20;;;23.20;56.30;;;;;;214227;1309;22660;-53
2021/12/20 17:16:41;;;;;;;2.50;1.30;;;23.30;56.40;;;;;;213766;1312;24425;-52
2021/12/20 17:21:46;;;;;;;5.70;1.30;;;23.20;56.20;;;;;;214157;1309;22645;-54
2021/12/20 17:26:57;;;;;;;4.40;1.40;;;23.20;56.20;;;;;;214182;1311;22661;-53
2021/12/20 17:32:07;;;;;;;3.50;1.30;;;23.40;55.80;;;;;;213493;1312;22579;-54
2021/12/20 17:37:20;;;;;;;5.30;1.60;;;23.30;55.80;;;;;;213935;1309;25834;-56
2021/12/20 17:42:24;;;;;;;4.30;1.30;;;23.30;56.10;;;;;;213996;1312;23021;-52
2021/12/20 17:47:37;;;;;;;8.60;1.30;;;23.30;55.90;;;;;;214893;1309;25542;-53
2021/12/20 17:52:43;;;;;;;5.00;1.40;;;23.30;55.80;;;;;;214100;1314;22569;-58
2021/12/20 17:57:52;;;;;;;3.00;1.20;;;23.50;56.00;;;;;;213664;1312;22686;-53
2021/12/20 18:03:00;;;;;;;3.20;1.30;;;23.40;55.70;;;;;;214008;1309;27698;-55
2021/12/20 18:08:07;;;;;;;3.50;1.70;;;23.40;56.10;;;;;;213979;1309;22562;-54
2021/12/20 18:13:13;;;;;;;3.50;1.20;;;23.40;56.20;;;;;;216191;1309;22654;-55
2021/12/20 18:18:21;;;;;;;3.40;1.20;;;23.40;55.80;;;;;;213952;1309;22798;-53
2021/12/20 18:23:27;;;;;;;5.00;1.60;;;23.40;55.70;;;;;;213966;1312;22556;-53
2021/12/20 18:28:31;;;;;;;3.60;1.70;;;23.40;55.70;;;;;;214391;1309;25666;-55
2021/12/20 18:33:35;;;;;;;4.90;1.70;;;23.40;56.10;;;;;;214203;1310;24273;-53
2021/12/20 18:38:40;;;;;;;3.80;1.70;;;23.50;55.60;;;;;;214218;1314;26634;-55
2021/12/20 18:43:53;;;;;;;4.10;1.90;;;23.50;55.50;;;;;;214091;1309;24287;-54
2021/12/20 18:49:00;;;;;;;10.70;2.50;;;23.40;55.30;;;;;;214053;1309;25562;-55
2021/12/20 18:54:05;;;;;;;7.80;2.50;;;23.50;55.00;;;;;;214205;1309;22597;-55
2021/12/20 18:59:10;;;;;;;11.40;2.70;;;23.20;54.70;;;;;;214204;1313;22722;-54
2021/12/20 19:04:33;;;;;;;15.70;5.00;;;23.20;54.60;;;;;;214153;1312;22561;-55
2021/12/20 19:09:58;;;;;;;10.90;4.10;;;23.30;54.30;;;;;;213884;1313;26588;-53
2021/12/20 19:15:03;;;;;;;14.80;4.50;;;23.30;54.40;;;;;;214198;1309;22574;-54
2021/12/20 19:20:08;;;;;;;18.00;4.60;;;23.30;53.70;;;;;;213563;1318;22596;-57
2021/12/20 19:25:32;;;;;;;12.70;4.90;;;23.40;53.20;;;;;;213885;1312;24178;-56
2021/12/20 19:30:38;;;;;;;12.80;3.60;;;23.50;52.80;;;;;;213987;1312;22807;-54
2021/12/20 19:35:53;;;;;;;12.70;3.80;;;23.40;52.40;;;;;;213507;1311;22648;-51
2021/12/20 19:41:01;;;;;;;13.60;4.20;;;23.50;52.10;;;;;;214075;1312;24221;-53
2021/12/20 19:46:23;;;;;;;15.40;4.10;;;23.40;52.10;;;;;;214141;1310;22723;-54
2021/12/20 19:51:54;;;;;;;14.90;4.20;;;23.50;52.60;;;;;;213896;1309;24394;-52
2021/12/20 19:57:24;;;;;;;13.00;3.80;;;23.40;52.70;;;;;;214204;1315;25614;-55
2021/12/20 20:02:51;;;;;;;16.60;4.50;;;23.30;52.70;;;;;;214340;1309;22716;-55
2021/12/20 20:08:04;;;;;;;12.80;4.30;;;23.30;54.00;;;;;;214166;1315;22574;-55
2021/12/20 20:13:17;;;;;;;12.60;4.60;;;23.30;54.60;;;;;;214204;1309;25481;-57
2021/12/20 20:18:32;;;;;;;10.80;3.60;;;23.30;54.50;;;;;;214134;1309;22646;-55
2021/12/20 20:23:56;;;;;;;10.90;3.20;;;23.30;53.70;;;;;;213822;1313;24347;-53
2021/12/20 20:29:18;;;;;;;15.00;4.40;;;23.20;53.90;;;;;;213638;1309;22600;-56
2021/12/20 20:34:32;;;;;;;10.70;3.60;;;23.10;53.70;;;;;;213431;1309;25587;-56
2021/12/20 20:39:50;;;;;;;16.90;3.90;;;22.80;53.80;;;;;;214253;1309;24330;-53
2021/12/20 20:45:22;;;;;;;12.60;4.30;;;22.60;53.90;;;;;;214096;1315;22578;-55
2021/12/20 20:50:32;;;;;;;16.40;4.00;;;22.60;53.70;;;;;;213883;1316;25271;-53
2021/12/20 20:55:48;;;;;;;16.30;3.70;;;22.70;54.90;;;;;;213998;1312;25501;-53
2021/12/20 21:06:26;;;;;;;11.50;3.40;;;22.50;54.50;;;;;;214076;1309;25454;-53
2021/12/20 21:11:33;;;;;;;9.40;3.30;;;22.30;54.80;;;;;;214207;1315;26539;-54
2021/12/20 21:16:47;;;;;;;10.20;3.50;;;22.20;55.30;;;;;;214204;1315;22581;-53
2021/12/20 21:22:04;;;;;;;10.90;4.00;;;22.10;55.10;;;;;;214179;1310;22738;-51
2021/12/20 21:27:20;;;;;;;7.90;3.50;;;22.10;55.30;;;;;;214157;1315;22766;-53
2021/12/20 21:32:26;;;;;;;7.80;3.40;;;22.00;56.10;;;;;;214132;1309;24295;-54
2021/12/20 21:37:39;;;;;;;8.20;3.40;;;22.00;56.30;;;;;;213913;1315;25671;-53
2021/12/20 21:42:49;;;;;;;8.20;3.40;;;22.00;56.70;;;;;;213872;1312;22606;-53
2021/12/20 21:48:11;;;;;;;9.90;3.00;;;21.90;59.00;;;;;;214049;1312;22595;-50
2021/12/20 21:53:53;;;;;;;9.10;3.10;;;22.30;57.60;;;;;;214004;1316;22615;-54
2021/12/20 21:58:59;;;;;;;6.80;2.90;;;22.60;56.80;;;;;;214069;1312;24303;-52
2021/12/20 22:04:07;;;;;;;8.30;2.80;;;22.40;57.10;;;;;;213934;1315;22982;-54
2021/12/20 22:09:24;;;;;;;6.30;2.90;;;22.30;57.30;;;;;;214096;1316;22580;-53
2021/12/20 22:14:29;;;;;;;8.20;3.00;;;22.30;57.30;;;;;;214296;1315;22584;-52
2021/12/20 22:19:32;;;;;;;10.00;3.10;;;22.30;57.50;;;;;;213392;1317;25274;-54
2021/12/20 22:24:39;;;;;;;6.10;2.60;;;22.20;57.50;;;;;;214141;1313;24257;-51
2021/12/20 22:29:42;;;;;;;7.00;3.00;;;22.30;57.80;;;;;;213925;1309;25380;-52
2021/12/20 22:34:49;;;;;;;7.30;2.60;;;22.30;57.60;;;;;;213818;1312;22596;-54
2021/12/20 22:39:54;;;;;;;8.20;3.50;;;22.30;57.40;;;;;;214174;1309;24249;-54
2021/12/20 22:45:03;;;;;;;6.30;2.60;;;22.40;56.80;;;;;;214103;1315;24235;-57
2021/12/20 22:50:34;;;;;;;5.30;2.50;;;22.30;57.20;;;;;;213167;1313;23086;-52
2021/12/20 22:56:20;;;;;;;8.70;3.30;;;22.50;56.50;;;;;;214167;1309;24053;-54
2021/12/20 23:01:27;;;;;;;7.40;2.60;;;22.60;56.20;;;;;;213426;1317;22919;-52
2021/12/20 23:06:37;;;;;;;7.90;2.70;;;22.80;55.60;;;;;;214021;1313;22634;-54
2021/12/20 23:11:55;;;;;;;8.90;3.10;;;22.80;55.80;;;;;;213823;1315;22606;-51
2021/12/20 23:16:59;;;;;;;6.60;2.70;;;22.60;56.50;;;;;;213899;1311;22606;-54
2021/12/20 23:22:07;;;;;;;10.20;2.80;;;22.80;56.10;;;;;;214022;1309;22670;-51
2021/12/20 23:27:31;;;;;;;5.60;2.70;;;23.00;55.80;;;;;;214052;1309;24372;-51
2021/12/20 23:32:45;;;;;;;5.90;3.10;;;23.00;55.70;;;;;;214073;1314;22616;-56
2021/12/20 23:37:56;;;;;;;9.70;2.70;;;22.90;56.10;;;;;;213342;1312;25266;-50
2021/12/20 23:43:15;;;;;;;6.80;2.70;;;22.90;55.80;;;;;;213400;1312;25340;-53
2021/12/20 23:48:23;;;;;;;5.40;2.40;;;22.80;55.70;;;;;;214041;1315;24293;-55
2021/12/20 23:53:30;;;;;;;5.60;2.60;;;22.90;55.40;;;;;;214215;1310;26231;-52
2021/12/20 23:58:35;;;;;;;6.40;2.70;;;23.00;55.20;;;;;;214230;1311;22650;-51
